Time;durP1;ratioP1;P1;durP2;ratioP2;P2;SDS_P1;SDS_P2;PMS_P1;PMS_P2;Temp;Humidity;BMP_temperature;BMP_pressure;BME280_temperature;BME280_humidity;BME280_pressure;Samples;Min_cycle;Max_cycle;Signal;HPM_P1;HPM_P2
2023/07/26 00:00:11;;;;;;;9.73;8.93;;;;;;;;;;4934940;29;20039;-72
2023/07/26 00:02:40;;;;;;;9.50;8.80;;;;;;;;;;4934895;29;20180;-71
2023/07/26 00:05:06;;;;;;;9.43;8.63;;;;;;;;;;4934727;29;20047;-72
2023/07/26 00:07:32;;;;;;;10.27;9.27;;;;;;;;;;4934960;29;20481;-72
2023/07/26 00:09:58;;;;;;;10.23;9.00;;;;;;;;;;4934959;29;20032;-71
2023/07/26 00:12:26;;;;;;;10.23;9.32;;;;;;;;;;4934718;29;20031;-71
2023/07/26 00:14:53;;;;;;;8.73;8.02;;;;;;;;;;4934987;29;20486;-70
2023/07/26 00:17:19;;;;;;;10.75;9.35;;;;;;;;;;4934707;29;20502;-72
2023/07/26 00:19:45;;;;;;;10.00;9.30;;;;;;;;;;4934763;29;20405;-71
2023/07/26 00:22:12;;;;;;;9.95;8.98;;;;;;;;;;4933281;29;20039;-72
2023/07/26 00:24:38;;;;;;;11.52;8.55;;;;;;;;;;4934613;29;20640;-71
2023/07/26 00:27:04;;;;;;;9.90;9.13;;;;;;;;;;4934508;29;20066;-73
2023/07/26 00:29:31;;;;;;;9.90;9.00;;;;;;;;;;4934524;29;20042;-71
2023/07/26 00:31:57;;;;;;;12.27;10.07;;;;;;;;;;4934604;29;20047;-73
2023/07/26 00:34:23;;;;;;;11.35;9.48;;;;;;;;;;4934107;29;20036;-72
2023/07/26 00:36:49;;;;;;;11.93;9.00;;;;;;;;;;4934546;29;20036;-72
2023/07/26 00:39:15;;;;;;;10.30;9.35;;;;;;;;;;4934276;29;20574;-71
2023/07/26 00:41:41;;;;;;;10.40;9.40;;;;;;;;;;4933394;29;20035;-72
2023/07/26 00:44:07;;;;;;;9.48;8.65;;;;;;;;;;4933625;29;20047;-72
2023/07/26 00:46:34;;;;;;;10.45;9.50;;;;;;;;;;4934747;29;20054;-72
2023/07/26 00:49:00;;;;;;;9.77;8.82;;;;;;;;;;4940189;29;20070;-72
2023/07/26 00:51:26;;;;;;;9.77;8.93;;;;;;;;;;4938075;29;20044;-70
2023/07/26 00:53:52;;;;;;;10.02;9.07;;;;;;;;;;4934251;29;20058;-71
2023/07/26 00:56:18;;;;;;;10.65;9.55;;;;;;;;;;4933589;29;20133;-70
2023/07/26 00:58:44;;;;;;;11.00;9.95;;;;;;;;;;4917286;29;20067;-71
2023/07/26 01:01:10;;;;;;;9.88;9.07;;;;;;;;;;4936247;29;20055;-72
2023/07/26 01:03:36;;;;;;;10.52;9.40;;;;;;;;;;4918015;29;20035;-71
2023/07/26 01:06:06;;;;;;;11.07;9.85;;;;;;;;;;4934200;29;20050;-71
2023/07/26 01:08:51;;;;;;;10.93;9.98;;;;;;;;;;4932804;29;20043;-70
2023/07/26 01:11:19;;;;;;;10.65;9.65;;;;;;;;;;4933493;29;20043;-71
2023/07/26 01:13:45;;;;;;;11.00;9.80;;;;;;;;;;4933216;29;20043;-72
2023/07/26 01:16:11;;;;;;;10.55;9.63;;;;;;;;;;4933413;29;20422;-72
2023/07/26 01:18:37;;;;;;;10.90;9.77;;;;;;;;;;4932418;29;20035;-72
2023/07/26 01:21:03;;;;;;;10.73;9.73;;;;;;;;;;4932405;29;20046;-72
2023/07/26 01:23:29;;;;;;;11.18;10.27;;;;;;;;;;4932055;29;20035;-71
2023/07/26 01:25:55;;;;;;;11.95;10.07;;;;;;;;;;4932067;29;20111;-72
2023/07/26 01:28:21;;;;;;;10.65;9.48;;;;;;;;;;4933287;29;20041;-71
2023/07/26 01:30:47;;;;;;;11.68;10.65;;;;;;;;;;4932126;29;20074;-72
2023/07/26 01:33:13;;;;;;;10.98;9.90;;;;;;;;;;4932046;29;20554;-72
2023/07/26 01:35:39;;;;;;;11.23;10.05;;;;;;;;;;4933204;29;20040;-72
2023/07/26 01:38:05;;;;;;;11.50;10.40;;;;;;;;;;4933433;29;20047;-70
2023/07/26 01:40:31;;;;;;;10.50;9.50;;;;;;;;;;4931756;29;20094;-71
2023/07/26 01:42:58;;;;;;;10.32;9.52;;;;;;;;;;4932060;29;20491;-71
2023/07/26 01:45:23;;;;;;;10.82;9.98;;;;;;;;;;4932883;29;20044;-71
2023/07/26 01:47:50;;;;;;;10.32;9.40;;;;;;;;;;4932144;29;20510;-71
2023/07/26 01:50:16;;;;;;;11.52;10.63;;;;;;;;;;4931518;29;20059;-70
2023/07/26 01:52:42;;;;;;;10.93;10.05;;;;;;;;;;4933145;29;20058;-72
2023/07/26 01:55:08;;;;;;;11.38;10.48;;;;;;;;;;4932948;29;20078;-71
2023/07/26 01:57:35;;;;;;;11.10;10.18;;;;;;;;;;4932961;29;20142;-72
2023/07/26 02:00:01;;;;;;;11.45;10.38;;;;;;;;;;4916066;29;20538;-73
2023/07/26 02:02:30;;;;;;;14.18;10.25;;;;;;;;;;4931852;29;20514;-72
2023/07/26 02:04:56;;;;;;;11.52;10.32;;;;;;;;;;4933098;29;20119;-71
2023/07/26 02:07:22;;;;;;;11.27;10.35;;;;;;;;;;4931358;29;20048;-71
2023/07/26 02:09:48;;;;;;;10.48;9.68;;;;;;;;;;4931667;29;20047;-72
2023/07/26 02:12:14;;;;;;;11.32;10.25;;;;;;;;;;4932798;29;20050;-72
2023/07/26 02:14:40;;;;;;;10.18;9.27;;;;;;;;;;4931786;29;20122;-72
2023/07/26 02:17:06;;;;;;;9.52;8.65;;;;;;;;;;4932902;29;20075;-72
2023/07/26 02:19:32;;;;;;;10.18;9.18;;;;;;;;;;4932775;29;20414;-73
2023/07/26 02:21:58;;;;;;;11.27;10.30;;;;;;;;;;4932742;29;20035;-72
2023/07/26 02:24:25;;;;;;;11.98;9.90;;;;;;;;;;4931347;29;20044;-70
2023/07/26 02:26:51;;;;;;;12.55;11.30;;;;;;;;;;4936244;29;20441;-72
2023/07/26 02:29:17;;;;;;;12.32;11.32;;;;;;;;;;4935236;29;20114;-71
2023/07/26 02:31:43;;;;;;;10.95;9.82;;;;;;;;;;4935556;29;20052;-72
2023/07/26 02:34:09;;;;;;;11.27;10.13;;;;;;;;;;4935518;29;20601;-71
2023/07/26 02:36:35;;;;;;;11.27;10.02;;;;;;;;;;4936317;29;20523;-72
2023/07/26 02:39:01;;;;;;;10.43;9.45;;;;;;;;;;4919533;29;20032;-73
2023/07/26 02:41:27;;;;;;;10.68;9.68;;;;;;;;;;4934982;29;20067;-72
2023/07/26 02:43:53;;;;;;;10.43;9.45;;;;;;;;;;4936735;29;20066;-71
2023/07/26 02:46:19;;;;;;;11.27;10.35;;;;;;;;;;4936296;29;20511;-73
2023/07/26 02:48:45;;;;;;;10.82;9.85;;;;;;;;;;4936365;29;20036;-73
2023/07/26 02:51:11;;;;;;;13.85;10.55;;;;;;;;;;4937241;29;20040;-71
2023/07/26 02:53:37;;;;;;;13.73;10.32;;;;;;;;;;4936110;29;20036;-72
2023/07/26 02:56:03;;;;;;;11.98;10.93;;;;;;;;;;4936292;29;20064;-71
2023/07/26 02:58:30;;;;;;;10.70;9.77;;;;;;;;;;4935443;29;20074;-72
2023/07/26 03:00:56;;;;;;;11.23;9.73;;;;;;;;;;4936685;29;20400;-75
2023/07/26 03:03:22;;;;;;;12.75;10.02;;;;;;;;;;4935446;29;20133;-72
2023/07/26 03:05:49;;;;;;;10.60;9.40;;;;;;;;;;4936555;29;20426;-71
2023/07/26 03:08:15;;;;;;;11.48;9.75;;;;;;;;;;4936662;29;20036;-71
2023/07/26 03:10:41;;;;;;;12.70;9.73;;;;;;;;;;4936327;29;20048;-73
2023/07/26 03:13:07;;;;;;;9.88;8.93;;;;;;;;;;4934999;29;20035;-73
2023/07/26 03:15:33;;;;;;;9.88;8.88;;;;;;;;;;4935630;29;20043;-71
2023/07/26 03:17:59;;;;;;;12.73;9.57;;;;;;;;;;4918842;29;20372;-74
2023/07/26 03:20:25;;;;;;;9.05;8.23;;;;;;;;;;4934166;29;20035;-73
2023/07/26 03:22:53;;;;;;;9.85;8.93;;;;;;;;;;4934572;29;20047;-72
2023/07/26 03:25:19;;;;;;;9.73;8.82;;;;;;;;;;4935229;29;20031;-72
2023/07/26 03:27:45;;;;;;;9.80;8.98;;;;;;;;;;4935771;29;20173;-72
2023/07/26 03:30:11;;;;;;;9.23;8.50;;;;;;;;;;4934236;29;20570;-72
2023/07/26 03:32:37;;;;;;;9.52;8.70;;;;;;;;;;4935394;29;20074;-71
2023/07/26 03:35:03;;;;;;;10.10;9.20;;;;;;;;;;4934286;29;20067;-72
2023/07/26 03:37:30;;;;;;;9.73;8.77;;;;;;;;;;4934754;29;20495;-72
2023/07/26 03:39:56;;;;;;;9.38;8.38;;;;;;;;;;4935441;29;20041;-72
2023/07/26 03:42:22;;;;;;;9.68;8.80;;;;;;;;;;4934143;29;20040;-72
2023/07/26 03:44:48;;;;;;;9.95;9.05;;;;;;;;;;4935314;29;20677;-72
2023/07/26 03:47:14;;;;;;;12.10;8.45;;;;;;;;;;4934192;29;20134;-71
2023/07/26 03:49:41;;;;;;;10.57;9.57;;;;;;;;;;4937378;29;20073;-72
2023/07/26 03:52:07;;;;;;;9.35;8.55;;;;;;;;;;4939652;29;20078;-72
2023/07/26 03:54:34;;;;;;;9.30;8.52;;;;;;;;;;4941786;29;20070;-70
2023/07/26 03:57:00;;;;;;;9.60;8.68;;;;;;;;;;4937155;29;20060;-72
2023/07/26 03:59:26;;;;;;;10.73;9.70;;;;;;;;;;4934827;29;20040;-72
2023/07/26 04:01:52;;;;;;;8.95;8.05;;;;;;;;;;4933655;29;20032;-73
2023/07/26 04:04:18;;;;;;;9.57;8.15;;;;;;;;;;4934699;29;20495;-73
2023/07/26 04:06:44;;;;;;;9.13;8.25;;;;;;;;;;4933755;29;20362;-71
2023/07/26 04:09:10;;;;;;;9.00;8.07;;;;;;;;;;4935326;29;20044;-73
2023/07/26 04:11:36;;;;;;;9.30;8.40;;;;;;;;;;4934708;29;20565;-72
2023/07/26 04:14:03;;;;;;;8.38;7.68;;;;;;;;;;4933587;29;20083;-72
2023/07/26 04:16:28;;;;;;;10.15;8.55;;;;;;;;;;4933134;29;20031;-73
2023/07/26 04:18:55;;;;;;;9.02;8.30;;;;;;;;;;4934786;29;20502;-73
2023/07/26 04:21:21;;;;;;;8.77;8.07;;;;;;;;;;4933073;29;20046;-74
2023/07/26 04:23:47;;;;;;;8.20;7.32;;;;;;;;;;4933436;29;20561;-73
2023/07/26 04:26:14;;;;;;;9.45;8.32;;;;;;;;;;4933277;29;20103;-72
2023/07/26 04:28:40;;;;;;;10.30;8.20;;;;;;;;;;4934367;29;20199;-73
2023/07/26 04:31:06;;;;;;;10.52;8.77;;;;;;;;;;4934396;29;20039;-73
2023/07/26 04:33:32;;;;;;;8.25;7.30;;;;;;;;;;4934180;29;20036;-74
2023/07/26 04:35:57;;;;;;;11.70;8.55;;;;;;;;;;4934345;29;20417;-73
2023/07/26 04:38:24;;;;;;;8.15;7.50;;;;;;;;;;4934222;29;20095;-73
2023/07/26 04:40:50;;;;;;;8.55;7.75;;;;;;;;;;4933153;29;20098;-72
2023/07/26 04:43:19;;;;;;;8.60;7.80;;;;;;;;;;4934454;29;20039;-71
2023/07/26 04:45:45;;;;;;;8.18;7.47;;;;;;;;;;4934063;29;20182;-73
2023/07/26 04:48:11;;;;;;;8.82;7.80;;;;;;;;;;4932580;29;20031;-72
2023/07/26 04:50:37;;;;;;;8.40;7.57;;;;;;;;;;4933241;29;20038;-73
2023/07/26 04:53:04;;;;;;;9.73;7.00;;;;;;;;;;4933043;29;20051;-74
2023/07/26 04:55:30;;;;;;;13.32;7.63;;;;;;;;;;4933658;29;20046;-73
2023/07/26 04:57:56;;;;;;;11.00;7.68;;;;;;;;;;4934105;29;20043;-72
2023/07/26 05:00:22;;;;;;;8.80;7.90;;;;;;;;;;4933707;29;20043;-72
2023/07/26 05:02:48;;;;;;;8.68;7.78;;;;;;;;;;4934039;29;20040;-73
2023/07/26 05:05:14;;;;;;;9.65;7.68;;;;;;;;;;4933871;29;20050;-73
2023/07/26 05:07:40;;;;;;;8.77;8.07;;;;;;;;;;4933320;29;20062;-73
2023/07/26 05:10:06;;;;;;;8.45;7.20;;;;;;;;;;4934052;29;20081;-74
2023/07/26 05:12:32;;;;;;;12.65;7.15;;;;;;;;;;4932306;29;20488;-73
2023/07/26 05:14:58;;;;;;;7.95;7.25;;;;;;;;;;4933708;29;20067;-73
2023/07/26 05:17:24;;;;;;;8.30;7.60;;;;;;;;;;4932032;29;20074;-72
2023/07/26 05:19:51;;;;;;;8.75;7.75;;;;;;;;;;4933709;29;20032;-73
2023/07/26 05:22:17;;;;;;;8.98;8.18;;;;;;;;;;4933527;29;20048;-73
2023/07/26 05:24:43;;;;;;;8.90;8.00;;;;;;;;;;4931950;29;20114;-74
2023/07/26 05:27:09;;;;;;;9.23;7.45;;;;;;;;;;4933353;29;20058;-74
2023/07/26 05:29:35;;;;;;;9.88;7.10;;;;;;;;;;4916157;29;20502;-73
2023/07/26 05:32:01;;;;;;;6.75;6.28;;;;;;;;;;4933295;29;20495;-73
2023/07/26 05:34:27;;;;;;;7.05;6.38;;;;;;;;;;4933252;29;20035;-72
2023/07/26 05:36:53;;;;;;;7.90;7.20;;;;;;;;;;4933460;29;20421;-73
2023/07/26 05:39:20;;;;;;;6.97;6.38;;;;;;;;;;4933485;29;20490;-73
2023/07/26 05:41:46;;;;;;;7.70;6.97;;;;;;;;;;4931910;29;20055;-73
2023/07/26 05:44:12;;;;;;;9.82;6.97;;;;;;;;;;4933457;29;20486;-73
2023/07/26 05:46:38;;;;;;;8.13;7.32;;;;;;;;;;4933174;29;20048;-73
2023/07/26 05:49:04;;;;;;;7.72;6.88;;;;;;;;;;4932200;29;20044;-74
2023/07/26 05:51:30;;;;;;;8.40;7.60;;;;;;;;;;4931644;29;20443;-73
2023/07/26 05:53:56;;;;;;;6.30;5.80;;;;;;;;;;4933182;29;20035;-73
2023/07/26 05:56:22;;;;;;;8.40;7.70;;;;;;;;;;4932740;29;20051;-71
2023/07/26 05:58:48;;;;;;;8.77;7.35;;;;;;;;;;4931902;29;20623;-73
2023/07/26 06:01:14;;;;;;;8.50;7.70;;;;;;;;;;4932753;29;20062;-74
2023/07/26 06:03:42;;;;;;;7.60;6.55;;;;;;;;;;4932997;29;20046;-73
2023/07/26 06:06:08;;;;;;;8.75;7.13;;;;;;;;;;4932849;29;20043;-72
2023/07/26 06:08:34;;;;;;;12.00;7.45;;;;;;;;;;4933308;29;20043;-73
2023/07/26 06:11:00;;;;;;;8.93;7.55;;;;;;;;;;4933178;29;20462;-74
2023/07/26 06:13:26;;;;;;;8.63;7.40;;;;;;;;;;4932896;29;20047;-72
2023/07/26 06:15:52;;;;;;;11.00;7.50;;;;;;;;;;4934661;29;20451;-73
2023/07/26 06:18:19;;;;;;;10.23;7.60;;;;;;;;;;4932543;29;20046;-73
2023/07/26 06:20:45;;;;;;;8.55;6.82;;;;;;;;;;4933864;29;20074;-73
2023/07/26 06:23:11;;;;;;;6.63;6.13;;;;;;;;;;4933617;29;20028;-73
2023/07/26 06:25:37;;;;;;;8.35;7.68;;;;;;;;;;4934222;29;20062;-73
2023/07/26 06:28:03;;;;;;;8.05;7.45;;;;;;;;;;4932822;29;20095;-72
2023/07/26 06:30:30;;;;;;;11.68;7.63;;;;;;;;;;4933672;29;20032;-74
2023/07/26 06:32:56;;;;;;;8.02;7.43;;;;;;;;;;4916538;29;20102;-73
2023/07/26 06:35:22;;;;;;;8.10;7.40;;;;;;;;;;4931788;29;20035;-71
2023/07/26 06:37:48;;;;;;;9.10;7.45;;;;;;;;;;4931447;29;20039;-72
2023/07/26 06:40:14;;;;;;;8.90;7.65;;;;;;;;;;4933513;29;20193;-74
2023/07/26 06:42:40;;;;;;;8.32;6.97;;;;;;;;;;4932571;29;20043;-73
2023/07/26 06:45:06;;;;;;;8.93;7.55;;;;;;;;;;4932730;29;20031;-73
2023/07/26 06:47:33;;;;;;;8.02;7.25;;;;;;;;;;4932317;29;20525;-74
2023/07/26 06:49:59;;;;;;;8.52;7.72;;;;;;;;;;4932560;29;20027;-73
2023/07/26 06:52:27;;;;;;;8.52;7.35;;;;;;;;;;4931799;29;20415;-72
2023/07/26 06:54:54;;;;;;;8.70;7.80;;;;;;;;;;4936233;29;20082;-73
2023/07/26 06:57:20;;;;;;;8.60;7.90;;;;;;;;;;4936526;29;20489;-72
2023/07/26 06:59:46;;;;;;;8.52;7.72;;;;;;;;;;4931059;29;20414;-73
2023/07/26 07:02:12;;;;;;;9.55;7.40;;;;;;;;;;4931285;29;20047;-73
2023/07/26 07:04:38;;;;;;;8.60;7.70;;;;;;;;;;4932370;29;20032;-73
2023/07/26 07:07:04;;;;;;;9.18;8.07;;;;;;;;;;4932245;29;20526;-72
2023/07/26 07:09:30;;;;;;;12.02;7.88;;;;;;;;;;4932173;29;20083;-75
2023/07/26 07:11:56;;;;;;;9.80;8.85;;;;;;;;;;4931378;29;20040;-73
2023/07/26 07:14:22;;;;;;;11.88;8.10;;;;;;;;;;4934943;29;20118;-74
2023/07/26 07:16:48;;;;;;;8.98;7.47;;;;;;;;;;4935685;29;20126;-73
2023/07/26 07:19:14;;;;;;;8.52;7.80;;;;;;;;;;4918738;29;20046;-74
2023/07/26 07:21:41;;;;;;;8.38;7.68;;;;;;;;;;4935480;29;20051;-73
2023/07/26 07:24:07;;;;;;;8.90;8.02;;;;;;;;;;4935719;29;20044;-74
2023/07/26 07:26:33;;;;;;;8.70;8.00;;;;;;;;;;4935300;29;20071;-73
2023/07/26 07:28:59;;;;;;;10.35;8.23;;;;;;;;;;4935875;29;20043;-73
2023/07/26 07:31:25;;;;;;;6.20;5.63;;;;;;;;;;4935881;29;20028;-75
2023/07/26 07:33:51;;;;;;;8.73;7.93;;;;;;;;;;4936437;29;20143;-73
2023/07/26 07:36:19;;;;;;;7.50;6.95;;;;;;;;;;4936871;29;20574;-72
2023/07/26 07:38:45;;;;;;;8.05;7.43;;;;;;;;;;4936819;29;20529;-74
2023/07/26 07:41:12;;;;;;;8.43;7.35;;;;;;;;;;4936909;29;20051;-75
2023/07/26 07:43:38;;;;;;;8.18;6.88;;;;;;;;;;4935349;29;20091;-75
2023/07/26 07:46:04;;;;;;;9.13;8.35;;;;;;;;;;4935433;29;20151;-74
2023/07/26 07:48:31;;;;;;;8.88;8.07;;;;;;;;;;4936544;29;20036;-75
2023/07/26 07:50:56;;;;;;;9.55;7.78;;;;;;;;;;4935040;29;20043;-73
2023/07/26 07:53:23;;;;;;;7.07;6.35;;;;;;;;;;4918863;29;20035;-74
2023/07/26 07:55:49;;;;;;;9.40;7.75;;;;;;;;;;4935405;29;20060;-74
2023/07/26 07:58:15;;;;;;;6.53;5.93;;;;;;;;;;4935487;29;20040;-73
2023/07/26 08:00:41;;;;;;;11.35;7.40;;;;;;;;;;4935304;29;20046;-74
2023/07/26 08:03:07;;;;;;;8.13;7.32;;;;;;;;;;4935002;29;20181;-73
2023/07/26 08:05:33;;;;;;;7.85;7.10;;;;;;;;;;4934901;29;20044;-73
2023/07/26 08:07:59;;;;;;;8.38;7.38;;;;;;;;;;4934992;29;20578;-73
2023/07/26 08:10:25;;;;;;;7.65;7.05;;;;;;;;;;4934924;29;20211;-75
2023/07/26 08:12:52;;;;;;;8.85;8.00;;;;;;;;;;4933355;29;20040;-73
2023/07/26 08:15:17;;;;;;;7.50;6.95;;;;;;;;;;4935279;29;20031;-73
2023/07/26 08:17:43;;;;;;;13.10;7.88;;;;;;;;;;4934616;29;20031;-73
2023/07/26 08:20:10;;;;;;;8.75;7.60;;;;;;;;;;4934539;29;20403;-73
2023/07/26 08:22:36;;;;;;;10.77;8.15;;;;;;;;;;4934447;29;20043;-74
2023/07/26 08:25:02;;;;;;;9.30;7.82;;;;;;;;;;4934693;29;20036;-74
2023/07/26 08:27:31;;;;;;;10.00;7.90;;;;;;;;;;4934539;29;20410;-74
2023/07/26 08:29:57;;;;;;;8.48;7.55;;;;;;;;;;4934474;29;20059;-73
2023/07/26 08:32:23;;;;;;;8.65;6.68;;;;;;;;;;4933322;29;20077;-73
2023/07/26 08:34:49;;;;;;;10.38;6.82;;;;;;;;;;4934375;29;20478;-74
2023/07/26 08:37:18;;;;;;;7.53;6.78;;;;;;;;;;4934241;29;20070;-73
2023/07/26 08:39:45;;;;;;;8.80;8.10;;;;;;;;;;4933840;29;20507;-73
2023/07/26 08:42:11;;;;;;;6.60;6.15;;;;;;;;;;4934337;29;20112;-73
2023/07/26 08:44:37;;;;;;;8.45;7.30;;;;;;;;;;4932652;29;20507;-75
2023/07/26 08:47:03;;;;;;;8.77;7.78;;;;;;;;;;4934156;29;20056;-75
2023/07/26 08:49:30;;;;;;;10.23;7.55;;;;;;;;;;4934214;29;20037;-74
2023/07/26 08:51:56;;;;;;;6.57;5.97;;;;;;;;;;4933868;29;20110;-75
2023/07/26 08:54:22;;;;;;;8.52;7.63;;;;;;;;;;4932993;29;20137;-75
2023/07/26 08:56:48;;;;;;;9.40;7.80;;;;;;;;;;4933475;29;20461;-72
2023/07/26 08:59:14;;;;;;;8.43;7.63;;;;;;;;;;4934018;29;20038;-73
2023/07/26 09:01:40;;;;;;;9.25;8.35;;;;;;;;;;4932457;29;20071;-75
2023/07/26 09:04:08;;;;;;;8.88;7.95;;;;;;;;;;4932680;29;20387;-74
2023/07/26 09:06:37;;;;;;;11.73;9.07;;;;;;;;;;4933707;29;20047;-75
2023/07/26 09:09:03;;;;;;;11.55;6.32;;;;;;;;;;4934016;29;20122;-73
2023/07/26 09:11:30;;;;;;;7.50;6.70;;;;;;;;;;4933770;29;20040;-74
2023/07/26 09:13:57;;;;;;;5.10;4.70;;;;;;;;;;4933651;29;20036;-75
2023/07/26 09:16:30;;;;;;;7.72;5.93;;;;;;;;;;4934056;29;20039;-75
2023/07/26 09:19:00;;;;;;;8.23;6.20;;;;;;;;;;4932849;29;20043;-75
2023/07/26 09:21:29;;;;;;;9.57;6.93;;;;;;;;;;4933264;29;20035;-75
2023/07/26 09:23:56;;;;;;;7.10;6.53;;;;;;;;;;4933294;29;20557;-74
2023/07/26 09:26:41;;;;;;;8.27;7.43;;;;;;;;;;4933672;29;20043;-73
2023/07/26 09:29:10;;;;;;;9.45;7.95;;;;;;;;;;4935450;29;20130;-74
2023/07/26 09:31:38;;;;;;;10.23;7.25;;;;;;;;;;4935416;29;20313;-75
2023/07/26 09:34:07;;;;;;;13.50;8.55;;;;;;;;;;4933673;29;20048;-74
2023/07/26 09:36:40;;;;;;;9.25;7.10;;;;;;;;;;4932811;29;20078;-74
2023/07/26 09:39:07;;;;;;;12.50;6.45;;;;;;;;;;4933673;29;20058;-74
2023/07/26 09:41:33;;;;;;;8.13;7.32;;;;;;;;;;4932241;29;20031;-75
2023/07/26 09:43:59;;;;;;;12.40;7.43;;;;;;;;;;4933654;29;20036;-75
2023/07/26 09:46:25;;;;;;;7.00;6.40;;;;;;;;;;4933453;29;20047;-74
2023/07/26 09:48:58;;;;;;;10.23;8.10;;;;;;;;;;4933240;29;20044;-75
2023/07/26 09:51:25;;;;;;;7.75;7.03;;;;;;;;;;4932466;29;20051;-75
2023/07/26 09:53:52;;;;;;;9.80;7.53;;;;;;;;;;4936316;29;20032;-74
2023/07/26 09:56:18;;;;;;;9.13;7.90;;;;;;;;;;4935162;29;20063;-75
2023/07/26 09:58:44;;;;;;;11.88;8.35;;;;;;;;;;4934008;29;20454;-74
2023/07/26 10:01:11;;;;;;;9.55;7.43;;;;;;;;;;4931901;29;20032;-74
2023/07/26 10:03:37;;;;;;;12.95;6.97;;;;;;;;;;4932888;29;20047;-74
2023/07/26 10:06:03;;;;;;;13.00;8.48;;;;;;;;;;4916544;29;20046;-75
2023/07/26 10:08:29;;;;;;;16.33;8.23;;;;;;;;;;4931667;29;20043;-73
2023/07/26 10:10:56;;;;;;;8.38;7.55;;;;;;;;;;4932812;29;20046;-73
2023/07/26 10:13:22;;;;;;;9.30;8.30;;;;;;;;;;4931796;29;20299;-75
2023/07/26 10:15:48;;;;;;;7.75;6.97;;;;;;;;;;4931541;29;20397;-74
2023/07/26 10:18:20;;;;;;;9.35;7.80;;;;;;;;;;4931587;29;20534;-74
2023/07/26 10:20:46;;;;;;;9.98;8.23;;;;;;;;;;4932554;29;20034;-75
2023/07/26 10:23:12;;;;;;;10.30;8.00;;;;;;;;;;4932607;29;20569;-75
2023/07/26 10:25:39;;;;;;;9.80;8.32;;;;;;;;;;4932760;29;20091;-74
2023/07/26 10:28:06;;;;;;;12.23;8.93;;;;;;;;;;4931272;29;20040;-74
2023/07/26 10:30:32;;;;;;;8.65;7.95;;;;;;;;;;4932656;29;20091;-73
2023/07/26 10:32:59;;;;;;;8.90;8.02;;;;;;;;;;4931244;29;20499;-75
2023/07/26 10:35:31;;;;;;;8.70;7.85;;;;;;;;;;4932571;29;20058;-74
2023/07/26 10:37:58;;;;;;;8.82;8.05;;;;;;;;;;4915279;29;20032;-74
2023/07/26 10:40:33;;;;;;;9.68;8.73;;;;;;;;;;4931414;29;20035;-73
2023/07/26 10:42:59;;;;;;;8.45;7.65;;;;;;;;;;4931130;29;20075;-74
2023/07/26 10:45:41;;;;;;;10.77;7.60;;;;;;;;;;4931420;29;20078;-75
2023/07/26 10:48:26;;;;;;;13.75;8.63;;;;;;;;;;4934958;29;20086;-74
2023/07/26 10:50:58;;;;;;;12.10;8.32;;;;;;;;;;4919112;29;20122;-74
2023/07/26 10:53:36;;;;;;;10.90;8.45;;;;;;;;;;4919964;29;20123;-74
2023/07/26 10:56:08;;;;;;;13.90;8.60;;;;;;;;;;4935190;29;20408;-74
2023/07/26 10:58:34;;;;;;;9.23;7.93;;;;;;;;;;4937018;29;20043;-72
2023/07/26 11:01:03;;;;;;;10.15;9.25;;;;;;;;;;4937117;29;20486;-73
2023/07/26 11:03:29;;;;;;;11.95;8.63;;;;;;;;;;4934964;29;20083;-72
2023/07/26 11:05:55;;;;;;;10.80;9.73;;;;;;;;;;4935814;29;20039;-72
2023/07/26 11:08:21;;;;;;;10.23;9.45;;;;;;;;;;4934871;29;20128;-74
2023/07/26 11:10:51;;;;;;;13.65;10.18;;;;;;;;;;4935829;29;20062;-72
2023/07/26 11:13:19;;;;;;;11.18;10.07;;;;;;;;;;4934621;29;20036;-71
2023/07/26 11:15:46;;;;;;;12.25;10.95;;;;;;;;;;4935752;29;20032;-71
2023/07/26 11:18:12;;;;;;;13.45;11.35;;;;;;;;;;4936116;29;20126;-72
2023/07/26 11:20:39;;;;;;;11.88;10.43;;;;;;;;;;4934513;29;20418;-71
2023/07/26 11:23:15;;;;;;;12.40;11.23;;;;;;;;;;4935554;29;20502;-72
2023/07/26 11:25:42;;;;;;;12.63;11.35;;;;;;;;;;4935628;29;20474;-72
2023/07/26 11:28:08;;;;;;;13.10;11.90;;;;;;;;;;4935552;29;20126;-72
2023/07/26 11:30:35;;;;;;;16.50;12.73;;;;;;;;;;4935778;29;20071;-72
2023/07/26 11:33:01;;;;;;;16.02;12.70;;;;;;;;;;4935339;29;20039;-72
2023/07/26 11:35:36;;;;;;;16.67;13.00;;;;;;;;;;4935544;29;20043;-72
2023/07/26 11:38:02;;;;;;;13.43;12.13;;;;;;;;;;4935386;29;20036;-72
2023/07/26 11:40:28;;;;;;;13.50;12.38;;;;;;;;;;4935455;29;20047;-71
2023/07/26 11:42:54;;;;;;;14.52;11.02;;;;;;;;;;4935146;29;20122;-71
2023/07/26 11:45:20;;;;;;;9.90;9.10;;;;;;;;;;4934243;29;20067;-70
2023/07/26 11:47:48;;;;;;;12.00;10.82;;;;;;;;;;4935209;29;20106;-71
2023/07/26 11:50:18;;;;;;;15.25;9.77;;;;;;;;;;4934925;29;20214;-72
2023/07/26 11:52:44;;;;;;;11.75;10.30;;;;;;;;;;4935287;29;20043;-73
2023/07/26 11:55:10;;;;;;;14.32;10.88;;;;;;;;;;4935238;29;20122;-72
2023/07/26 11:57:36;;;;;;;13.77;12.35;;;;;;;;;;4934727;29;20463;-72
2023/07/26 12:00:04;;;;;;;13.07;11.77;;;;;;;;;;4934837;29;20131;-72
2023/07/26 12:02:39;;;;;;;11.90;10.48;;;;;;;;;;4935001;29;20039;-71
2023/07/26 12:05:21;;;;;;;14.95;10.38;;;;;;;;;;4934900;29;20094;-71
2023/07/26 12:07:48;;;;;;;11.70;10.55;;;;;;;;;;4917859;29;20430;-73
2023/07/26 12:10:17;;;;;;;12.10;9.73;;;;;;;;;;4935051;29;20043;-72
2023/07/26 12:12:43;;;;;;;10.70;9.80;;;;;;;;;;4934909;29;20055;-73
2023/07/26 12:15:10;;;;;;;11.52;10.55;;;;;;;;;;4934822;29;20042;-73
2023/07/26 12:17:36;;;;;;;13.88;10.35;;;;;;;;;;4935236;29;20494;-73
2023/07/26 12:20:03;;;;;;;13.55;11.07;;;;;;;;;;4936670;29;20506;-73
2023/07/26 12:22:29;;;;;;;11.57;10.48;;;;;;;;;;4933853;29;20055;-73
2023/07/26 12:24:56;;;;;;;14.27;10.55;;;;;;;;;;4934387;29;20114;-75
2023/07/26 12:27:22;;;;;;;11.23;10.02;;;;;;;;;;4933079;29;20055;-73
2023/07/26 12:29:48;;;;;;;14.73;10.02;;;;;;;;;;4933225;29;20027;-72
2023/07/26 12:32:17;;;;;;;11.02;9.73;;;;;;;;;;4933453;29;20134;-74
2023/07/26 12:34:44;;;;;;;12.35;10.82;;;;;;;;;;4933211;29;20087;-74
2023/07/26 12:37:10;;;;;;;12.55;9.93;;;;;;;;;;4934045;29;20043;-73
2023/07/26 12:39:37;;;;;;;12.82;9.57;;;;;;;;;;4933131;29;20051;-74
2023/07/26 12:42:03;;;;;;;13.27;10.52;;;;;;;;;;4934167;29;20036;-74
2023/07/26 12:44:29;;;;;;;10.40;9.50;;;;;;;;;;4934609;29;20068;-72
2023/07/26 12:46:55;;;;;;;11.38;10.35;;;;;;;;;;4932829;29;20044;-73
2023/07/26 12:49:21;;;;;;;12.57;9.82;;;;;;;;;;4934659;29;20044;-73
2023/07/26 12:51:50;;;;;;;11.35;10.35;;;;;;;;;;4934250;29;20036;-74
2023/07/26 12:54:16;;;;;;;12.27;10.15;;;;;;;;;;4935769;29;20028;-73
2023/07/26 12:56:42;;;;;;;13.40;10.95;;;;;;;;;;4939728;29;20493;-72
2023/07/26 12:59:08;;;;;;;12.32;11.20;;;;;;;;;;4940187;29;20103;-74
2023/07/26 13:01:34;;;;;;;15.63;10.73;;;;;;;;;;4935012;29;20036;-74
2023/07/26 13:04:00;;;;;;;10.23;9.35;;;;;;;;;;4932672;29;20050;-74
2023/07/26 13:06:26;;;;;;;20.25;11.32;;;;;;;;;;4934024;29;20043;-73
2023/07/26 13:08:52;;;;;;;11.23;10.02;;;;;;;;;;4933760;29;20039;-74
2023/07/26 13:11:18;;;;;;;16.42;10.77;;;;;;;;;;4933238;29;20518;-74
2023/07/26 13:13:44;;;;;;;15.52;11.15;;;;;;;;;;4933838;29;20122;-73
2023/07/26 13:16:10;;;;;;;14.85;10.80;;;;;;;;;;4933727;29;20047;-73
2023/07/26 13:18:36;;;;;;;13.10;10.32;;;;;;;;;;4932617;29;20114;-72
2023/07/26 13:21:02;;;;;;;18.63;10.52;;;;;;;;;;4916886;29;20050;-76
2023/07/26 13:23:28;;;;;;;11.20;10.07;;;;;;;;;;4933726;29;20028;-72
2023/07/26 13:25:54;;;;;;;11.50;10.38;;;;;;;;;;4933492;29;20039;-73
2023/07/26 13:28:20;;;;;;;11.65;10.45;;;;;;;;;;4933546;29;20503;-74
2023/07/26 13:30:47;;;;;;;12.23;8.85;;;;;;;;;;4932393;29;20039;-73
2023/07/26 13:33:13;;;;;;;11.88;9.90;;;;;;;;;;4933185;29;20103;-74
2023/07/26 13:35:39;;;;;;;10.93;9.82;;;;;;;;;;4916346;29;20046;-74
2023/07/26 13:38:05;;;;;;;15.52;10.30;;;;;;;;;;4933139;29;20036;-72
2023/07/26 13:40:31;;;;;;;15.75;10.93;;;;;;;;;;4933432;29;20043;-73
2023/07/26 13:42:57;;;;;;;11.35;10.25;;;;;;;;;;4931766;29;20039;-74
2023/07/26 13:45:23;;;;;;;18.90;9.93;;;;;;;;;;4932190;29;20518;-74
2023/07/26 13:47:49;;;;;;;12.52;9.80;;;;;;;;;;4931685;29;20047;-75
2023/07/26 13:50:16;;;;;;;21.00;10.75;;;;;;;;;;4933021;29;20209;-74
2023/07/26 13:52:41;;;;;;;12.20;11.00;;;;;;;;;;4915901;29;20418;-73
2023/07/26 13:55:08;;;;;;;17.52;10.93;;;;;;;;;;4915937;29;20028;-72
2023/07/26 13:57:34;;;;;;;12.77;10.77;;;;;;;;;;4932808;29;20055;-72
2023/07/26 14:00:00;;;;;;;16.35;11.45;;;;;;;;;;4931630;29;20047;-73
2023/07/26 14:02:26;;;;;;;11.82;10.85;;;;;;;;;;4932909;29;20491;-73
2023/07/26 14:04:52;;;;;;;12.10;10.90;;;;;;;;;;4933052;29;20035;-74
2023/07/26 14:07:18;;;;;;;10.40;9.50;;;;;;;;;;4932841;29;20059;-74
2023/07/26 14:09:44;;;;;;;13.25;10.50;;;;;;;;;;4932915;29;20035;-74
2023/07/26 14:12:10;;;;;;;12.55;10.95;;;;;;;;;;4931589;29;20515;-74
2023/07/26 14:14:37;;;;;;;12.95;11.38;;;;;;;;;;4933234;29;20541;-74
2023/07/26 14:17:04;;;;;;;12.43;10.75;;;;;;;;;;4932817;29;20047;-74
2023/07/26 14:19:30;;;;;;;13.73;10.15;;;;;;;;;;4932926;29;20040;-74
2023/07/26 14:21:56;;;;;;;12.70;10.95;;;;;;;;;;4933488;29;20067;-74
2023/07/26 14:24:23;;;;;;;11.50;10.35;;;;;;;;;;4935420;29;20070;-75
2023/07/26 14:26:49;;;;;;;14.63;10.85;;;;;;;;;;4935324;29;20044;-74
2023/07/26 14:29:15;;;;;;;12.85;10.85;;;;;;;;;;4935153;29;20040;-73